Time;durP1;ratioP1;P1;durP2;ratioP2;P2;SDS_P1;SDS_P2;PMS_P1;PMS_P2;Temp;Humidity;BMP_temperature;BMP_pressure;BME280_temperature;BME280_humidity;BME280_pressure;Samples;Min_cycle;Max_cycle;Signal;HPM_P1;HPM_P2
2021/09/09 00:01:43;;;;;;;19.83;11.75;;;;;;;29.62;37.35;100019.22;4419629;32;20029;-69
2021/09/09 00:04:08;;;;;;;25.62;11.18;;;;;;;29.65;37.42;100020.94;4421426;32;20257;-69
2021/09/09 00:06:34;;;;;;;17.05;10.68;;;;;;;29.67;37.40;100013.19;4420427;32;20085;-70
2021/09/09 00:09:00;;;;;;;20.35;11.50;;;;;;;29.59;37.29;100011.66;4421020;32;20087;-69
2021/09/09 00:11:26;;;;;;;23.52;11.07;;;;;;;29.53;37.20;99999.50;4422427;32;20160;-69
2021/09/09 00:13:52;;;;;;;20.15;11.30;;;;;;;29.64;37.09;100008.59;4419263;32;20104;-69
2021/09/09 00:16:18;;;;;;;20.37;11.40;;;;;;;29.60;37.06;100001.62;4421019;32;20382;-69
2021/09/09 00:18:44;;;;;;;22.45;11.50;;;;;;;29.53;36.84;100009.00;4421100;32;20084;-69
2021/09/09 00:21:11;;;;;;;25.65;12.65;;;;;;;29.52;37.05;100012.47;4420141;32;20070;-69
2021/09/09 00:23:37;;;;;;;28.08;13.85;;;;;;;29.39;37.92;100010.59;4419062;32;20640;-69
2021/09/09 00:26:04;;;;;;;23.02;13.95;;;;;;;29.41;38.23;100004.22;4418823;32;20089;-69
2021/09/09 00:28:31;;;;;;;25.55;13.50;;;;;;;29.55;38.20;100002.59;4420908;32;20351;-69
2021/09/09 00:30:57;;;;;;;27.55;13.93;;;;;;;29.66;38.31;100000.03;4419706;32;20069;-69
2021/09/09 00:33:22;;;;;;;20.10;12.48;;;;;;;29.67;38.32;100001.59;4419461;32;20485;-69
2021/09/09 00:35:48;;;;;;;26.23;13.35;;;;;;;29.63;38.59;100000.47;4421796;32;20030;-69
2021/09/09 00:38:14;;;;;;;20.25;12.88;;;;;;;29.60;38.66;99998.72;4419872;32;20425;-69
2021/09/09 00:40:40;;;;;;;22.70;11.85;;;;;;;29.60;38.69;99999.47;4419889;32;20049;-69
2021/09/09 00:43:06;;;;;;;21.70;11.90;;;;;;;29.51;38.86;99994.28;4422082;32;20099;-69
2021/09/09 00:45:32;;;;;;;20.77;11.63;;;;;;;29.60;38.82;99990.00;4417666;32;20073;-69
2021/09/09 00:47:58;;;;;;;20.73;12.75;;;;;;;29.52;38.89;99986.37;4421514;32;20049;-69
2021/09/09 00:50:25;;;;;;;23.58;12.32;;;;;;;29.56;38.73;99989.62;4419902;32;20455;-69
2021/09/09 00:52:51;;;;;;;24.05;13.30;;;;;;;29.63;38.57;99983.06;4420162;32;20038;-69
2021/09/09 00:55:18;;;;;;;24.83;12.98;;;;;;;29.66;38.92;99985.53;4419642;32;20453;-69
2021/09/09 00:57:45;;;;;;;21.70;12.20;;;;;;;29.49;39.09;99976.75;4417746;32;20081;-69
2021/09/09 01:00:12;;;;;;;24.70;12.20;;;;;;;29.57;38.68;99985.41;4420240;32;20122;-69
2021/09/09 01:02:38;;;;;;;20.58;11.45;;;;;;;29.47;38.98;99979.44;4419109;32;20637;-69
2021/09/09 01:05:07;;;;;;;21.23;11.43;;;;;;;29.41;38.98;99981.03;4415651;32;20086;-69
2021/09/09 01:07:32;;;;;;;19.85;12.20;;;;;;;29.54;38.72;99977.87;4421231;32;20034;-69
2021/09/09 01:09:59;;;;;;;26.27;12.23;;;;;;;29.37;38.83;99983.56;4421350;32;20029;-69
2021/09/09 01:12:26;;;;;;;29.48;11.68;;;;;;;29.48;38.79;99977.31;4421624;32;20077;-69
2021/09/09 01:14:53;;;;;;;21.42;11.82;;;;;;;29.60;38.45;99979.16;4422453;32;20073;-69
2021/09/09 01:17:20;;;;;;;20.27;11.68;;;;;;;29.47;38.64;99975.78;4420836;32;20133;-69
2021/09/09 01:19:45;;;;;;;16.75;10.88;;;;;;;29.48;38.52;99968.63;4418096;32;21262;-69
2021/09/09 01:22:11;;;;;;;18.73;11.68;;;;;;;29.50;38.55;99963.78;4419041;32;20075;-69
2021/09/09 01:24:37;;;;;;;23.70;12.70;;;;;;;29.59;38.37;99965.25;4416375;32;20057;-69
2021/09/09 01:27:06;;;;;;;22.20;11.85;;;;;;;29.60;38.37;99958.13;4422826;32;20096;-69
2021/09/09 01:29:34;;;;;;;21.90;12.68;;;;;;;29.77;38.28;99949.50;4421124;32;20107;-69
2021/09/09 01:32:01;;;;;;;22.65;12.90;;;;;;;29.72;38.36;99947.59;4421971;32;20034;-69
2021/09/09 01:34:27;;;;;;;24.15;11.50;;;;;;;29.72;38.34;99948.37;4420305;32;20078;-69
2021/09/09 01:36:55;;;;;;;27.98;12.32;;;;;;;29.71;38.18;99948.97;4423049;32;20578;-69
2021/09/09 01:39:22;;;;;;;18.33;12.35;;;;;;;29.83;38.13;99950.03;4418680;32;20159;-69
2021/09/09 01:41:50;;;;;;;18.92;11.50;;;;;;;29.77;38.21;99943.69;4420633;32;20474;-69
2021/09/09 01:44:16;;;;;;;18.98;11.88;;;;;;;29.62;38.62;99932.22;4420446;32;20568;-69
2021/09/09 01:46:42;;;;;;;22.30;12.27;;;;;;;29.31;39.11;99922.94;4417802;32;20070;-69
2021/09/09 01:49:07;;;;;;;22.73;12.80;;;;;;;29.34;39.06;99918.06;4422020;32;20076;-69
2021/09/09 01:51:34;;;;;;;16.85;10.68;;;;;;;29.37;39.06;99923.47;4420036;32;20138;-69
2021/09/09 01:53:59;;;;;;;27.02;12.70;;;;;;;29.38;38.85;99925.00;4421067;32;20026;-69
2021/09/09 01:56:25;;;;;;;21.27;12.13;;;;;;;29.33;38.92;99919.44;4420951;32;20486;-69
2021/09/09 01:58:51;;;;;;;23.55;12.27;;;;;;;29.29;39.04;99914.03;4423493;32;20514;-69
2021/09/09 02:01:18;;;;;;;19.17;11.90;;;;;;;29.32;38.93;99912.13;4424149;32;20153;-69
2021/09/09 02:03:44;;;;;;;20.48;12.15;;;;;;;29.29;39.12;99913.28;4420945;32;20160;-69
2021/09/09 02:06:10;;;;;;;24.85;12.20;;;;;;;29.12;39.16;99908.16;4423833;32;20073;-69
2021/09/09 02:08:35;;;;;;;27.42;11.80;;;;;;;29.09;39.29;99908.56;4423210;32;20340;-69
2021/09/09 02:11:01;;;;;;;18.45;10.65;;;;;;;29.12;39.38;99908.16;4422673;32;20033;-69
2021/09/09 02:13:27;;;;;;;17.92;11.70;;;;;;;28.93;39.56;99913.66;4421497;32;20093;-69
2021/09/09 02:15:52;;;;;;;19.40;11.68;;;;;;;29.06;39.21;99904.72;4421556;32;20386;-69
2021/09/09 02:18:18;;;;;;;21.10;12.40;;;;;;;28.93;39.52;99905.72;4421612;32;20150;-69
2021/09/09 02:20:44;;;;;;;17.45;11.73;;;;;;;28.80;39.73;99905.97;4419555;32;20103;-69
2021/09/09 02:23:09;;;;;;;20.77;11.50;;;;;;;28.75;39.78;99901.16;4421908;32;20096;-69
2021/09/09 02:25:35;;;;;;;22.35;13.18;;;;;;;28.57;40.08;99902.41;4423043;32;20101;-69
2021/09/09 02:28:00;;;;;;;22.83;12.88;;;;;;;28.40;40.39;99899.31;4421558;32;20491;-69
2021/09/09 02:30:26;;;;;;;20.23;12.18;;;;;;;28.36;40.63;99909.75;4420872;32;20099;-69
2021/09/09 02:32:53;;;;;;;21.62;12.27;;;;;;;28.25;40.99;99898.56;4422799;32;20664;-69
2021/09/09 02:35:19;;;;;;;20.95;12.40;;;;;;;28.28;41.07;99898.19;4421921;32;20049;-69
2021/09/09 02:37:44;;;;;;;25.27;12.27;;;;;;;28.22;41.03;99891.84;4423487;32;20418;-69
2021/09/09 02:40:12;;;;;;;20.35;12.70;;;;;;;28.16;41.10;99888.38;4423097;32;20042;-69
2021/09/09 02:42:38;;;;;;;19.65;12.75;;;;;;;28.15;41.22;99891.84;4420426;32;20064;-69
2021/09/09 02:45:05;;;;;;;24.48;13.45;;;;;;;28.25;41.00;99887.00;4422752;32;20097;-69
2021/09/09 02:47:30;;;;;;;27.77;12.98;;;;;;;28.28;41.05;99880.03;4419380;32;20109;-69
2021/09/09 02:49:56;;;;;;;20.85;12.93;;;;;;;28.29;40.95;99888.16;4424507;32;20069;-69
2021/09/09 02:52:21;;;;;;;24.05;12.35;;;;;;;28.27;41.12;99887.97;4422637;32;20100;-69
2021/09/09 02:54:47;;;;;;;27.33;12.85;;;;;;;28.42;40.72;99890.84;4423542;32;20078;-69
2021/09/09 02:57:12;;;;;;;23.45;12.60;;;;;;;28.45;40.53;99883.09;4423203;32;20459;-69
2021/09/09 02:59:38;;;;;;;23.25;12.40;;;;;;;28.47;40.27;99886.97;4420937;32;21156;-69
2021/09/09 03:02:04;;;;;;;17.48;11.65;;;;;;;28.56;40.07;99874.78;4419290;32;21197;-69
2021/09/09 03:04:30;;;;;;;19.85;12.77;;;;;;;28.35;40.15;99882.94;4417634;32;20052;-69
2021/09/09 03:06:57;;;;;;;21.35;12.93;;;;;;;28.36;40.02;99877.91;4420580;32;20449;-69
2021/09/09 03:09:22;;;;;;;21.50;12.70;;;;;;;28.25;40.49;99875.44;4423710;32;20093;-69
2021/09/09 03:11:48;;;;;;;20.10;12.25;;;;;;;28.40;40.35;99881.97;4422972;32;20136;-69
2021/09/09 03:14:14;;;;;;;21.02;12.27;;;;;;;28.42;40.12;99878.47;4419790;32;20061;-69
2021/09/09 03:16:40;;;;;;;23.90;13.02;;;;;;;28.27;39.85;99881.41;4420210;32;20078;-69
2021/09/09 03:19:05;;;;;;;22.00;13.20;;;;;;;28.18;39.83;99888.56;4423965;32;20186;-69
2021/09/09 03:21:31;;;;;;;24.55;13.32;;;;;;;28.30;39.65;99888.94;4422002;32;20076;-69
2021/09/09 03:23:57;;;;;;;20.77;11.98;;;;;;;28.33;39.69;99885.66;4422181;32;20060;-69
2021/09/09 03:26:23;;;;;;;21.08;12.57;;;;;;;28.17;40.48;99884.16;4423156;32;20419;-69
2021/09/09 03:28:48;;;;;;;20.65;12.88;;;;;;;28.38;40.19;99870.19;4420370;32;20483;-69
2021/09/09 03:31:14;;;;;;;22.85;12.63;;;;;;;28.27;40.27;99872.72;4419907;32;20122;-69
2021/09/09 03:33:40;;;;;;;18.08;12.20;;;;;;;28.18;40.20;99876.22;4421303;32;20052;-69
2021/09/09 03:36:05;;;;;;;21.77;13.02;;;;;;;28.15;40.03;99877.38;4418683;32;20089;-69
2021/09/09 03:38:31;;;;;;;21.10;13.00;;;;;;;28.11;40.06;99874.13;4419553;32;20380;-68
2021/09/09 03:40:57;;;;;;;19.37;12.77;;;;;;;28.19;40.02;99878.53;4421900;32;20052;-68
2021/09/09 03:43:22;;;;;;;20.95;11.75;;;;;;;28.16;40.18;99876.81;4420468;32;20029;-68
2021/09/09 03:45:48;;;;;;;20.20;12.35;;;;;;;28.21;40.38;99869.28;4421378;32;20041;-68
2021/09/09 03:48:13;;;;;;;19.73;12.77;;;;;;;27.95;40.84;99875.50;4423682;32;20124;-68
2021/09/09 03:50:39;;;;;;;21.12;12.27;;;;;;;27.93;40.82;99878.19;4422857;32;20133;-69
2021/09/09 03:53:05;;;;;;;18.05;11.75;;;;;;;27.85;40.96;99878.16;4421384;32;20068;-69
2021/09/09 03:55:32;;;;;;;20.60;12.35;;;;;;;27.98;40.56;99874.34;4423528;32;20327;-69
2021/09/09 03:57:57;;;;;;;20.80;12.50;;;;;;;28.05;40.41;99867.75;4420820;32;20786;-69
2021/09/09 04:00:23;;;;;;;22.95;11.70;;;;;;;28.07;40.37;99856.41;4418450;32;20034;-69
2021/09/09 04:02:49;;;;;;;21.42;11.52;;;;;;;27.99;40.15;99856.41;4420907;32;20037;-69
2021/09/09 04:05:17;;;;;;;24.27;13.25;;;;;;;27.99;40.25;99858.53;4418304;32;20041;-69
2021/09/09 04:07:44;;;;;;;19.33;12.90;;;;;;;27.99;39.98;99856.41;4419730;32;20414;-69
2021/09/09 04:10:10;;;;;;;21.17;12.48;;;;;;;28.08;39.96;99858.72;4419255;32;20099;-69
2021/09/09 04:12:36;;;;;;;19.58;12.45;;;;;;;28.18;39.85;99842.28;4416860;32;20388;-69
2021/09/09 04:15:03;;;;;;;23.17;12.10;;;;;;;28.16;39.82;99830.50;4420733;32;20054;-69
2021/09/09 04:17:30;;;;;;;22.23;12.80;;;;;;;28.20;39.86;99822.22;4421011;32;20065;-69
2021/09/09 04:19:56;;;;;;;21.48;12.90;;;;;;;27.99;40.36;99823.81;4423688;32;20042;-69
2021/09/09 04:22:22;;;;;;;22.90;12.95;;;;;;;28.03;40.24;99821.28;4421102;32;20074;-69
2021/09/09 04:24:48;;;;;;;25.10;13.38;;;;;;;28.07;40.19;99828.22;4421099;32;20075;-69
2021/09/09 04:27:13;;;;;;;26.83;13.43;;;;;;;27.92;40.58;99822.47;4424606;32;20092;-69
2021/09/09 04:29:39;;;;;;;21.90;13.52;;;;;;;27.93;40.70;99823.25;4420844;32;20037;-69
2021/09/09 04:32:05;;;;;;;23.02;13.02;;;;;;;27.82;41.12;99821.50;4420745;32;20064;-69
2021/09/09 04:34:31;;;;;;;23.38;12.13;;;;;;;27.93;40.95;99809.56;4418445;32;20052;-69
2021/09/09 04:36:57;;;;;;;25.10;13.65;;;;;;;27.81;40.99;99810.50;4420618;32;20038;-69
2021/09/09 04:39:23;;;;;;;25.67;13.62;;;;;;;27.77;nan;99802.25;4418899;32;20444;-68
2021/09/09 04:41:48;;;;;;;20.27;12.45;;;;;;;27.69;41.23;99800.69;4421792;32;20410;-68
2021/09/09 04:44:14;;;;;;;24.52;14.18;;;;;;;27.61;41.50;99794.91;4421314;32;20048;-68
2021/09/09 04:46:40;;;;;;;23.40;12.82;;;;;;;27.54;41.46;99795.69;4418549;32;20046;-68
2021/09/09 04:49:06;;;;;;;21.42;13.18;;;;;;;27.59;41.23;99802.63;4420976;32;20428;-68
2021/09/09 04:51:32;;;;;;;18.08;11.85;;;;;;;27.41;41.69;99806.69;4420720;32;20053;-68
2021/09/09 04:53:57;;;;;;;20.05;12.85;;;;;;;27.09;42.19;99801.47;4416985;32;20080;-68
2021/09/09 04:56:23;;;;;;;25.48;14.00;;;;;;;27.23;41.73;99800.69;4418273;32;20050;-69
2021/09/09 04:58:49;;;;;;;19.85;12.30;;;;;;;27.36;41.40;99796.84;4419042;32;20135;-69
2021/09/09 05:01:18;;;;;;;22.00;13.23;;;;;;;27.55;41.05;99796.47;4419586;32;20512;-69
2021/09/09 05:03:44;;;;;;;28.15;12.88;;;;;;;27.66;40.73;99796.84;4422050;32;20089;-69
2021/09/09 05:06:10;;;;;;;23.27;14.38;;;;;;;27.61;40.82;99786.25;4418572;32;20060;-69
2021/09/09 05:08:36;;;;;;;19.92;12.90;;;;;;;27.63;40.68;99789.34;4417118;32;20358;-69
2021/09/09 05:11:02;;;;;;;18.98;12.88;;;;;;;27.62;40.83;99795.69;4418696;32;20077;-69
2021/09/09 05:13:28;;;;;;;21.85;13.00;;;;;;;27.58;40.94;99795.31;4419868;32;20465;-69
2021/09/09 05:15:54;;;;;;;21.25;13.00;;;;;;;27.68;41.04;99796.28;4419222;32;20077;-69
2021/09/09 05:18:19;;;;;;;21.40;14.15;;;;;;;27.84;40.51;99804.34;4420216;32;20085;-69
2021/09/09 05:20:45;;;;;;;26.60;13.18;;;;;;;27.66;40.90;99798.97;4420519;32;20056;-69
2021/09/09 05:23:13;;;;;;;23.00;14.25;;;;;;;27.52;41.15;99803.44;4415746;32;20453;-69
2021/09/09 05:25:39;;;;;;;25.73;13.70;;;;;;;27.49;nan;99793.81;4418634;32;20037;-69
2021/09/09 05:28:05;;;;;;;29.02;14.45;;;;;;;27.59;41.12;99809.19;4424876;32;20477;-69
2021/09/09 05:30:30;;;;;;;21.20;13.15;;;;;;;27.63;41.01;99808.78;4421479;32;20070;-69
2021/09/09 05:32:56;;;;;;;26.77;13.62;;;;;;;27.81;40.78;99811.28;4423724;32;20140;-69
2021/09/09 05:35:22;;;;;;;28.65;13.57;;;;;;;27.88;40.35;99816.31;4420613;32;20072;-69
2021/09/09 05:37:47;;;;;;;30.70;14.13;;;;;;;27.72;40.96;99816.88;4421674;32;20038;-69
2021/09/09 05:40:13;;;;;;;24.65;14.40;;;;;;;27.73;41.02;99827.88;4422013;32;20033;-69
2021/09/09 05:42:39;;;;;;;25.88;13.57;;;;;;;27.78;41.03;99817.44;4420579;32;20839;-69
2021/09/09 05:45:05;;;;;;;25.83;13.25;;;;;;;27.89;40.80;99814.94;4420429;32;20073;-69
2021/09/09 05:47:31;;;;;;;24.42;12.60;;;;;;;28.05;40.51;99799.12;4417277;32;20077;-69
2021/09/09 05:49:57;;;;;;;23.48;13.93;;;;;;;28.10;40.34;99806.06;4421446;32;20057;-69
2021/09/09 05:52:23;;;;;;;29.08;17.37;;;;;;;28.19;40.08;99806.19;4418854;32;20423;-69
2021/09/09 05:54:49;;;;;;;26.98;14.48;;;;;;;28.13;40.24;99802.75;4421652;32;20604;-69
2021/09/09 05:57:15;;;;;;;36.03;15.95;;;;;;;28.16;40.24;99801.59;4424549;32;20434;-68
2021/09/09 05:59:41;;;;;;;30.52;16.12;;;;;;;28.29;40.08;99818.69;4421060;32;20095;-69
2021/09/09 06:02:14;;;;;;;32.70;18.08;;;;;;;28.36;40.08;99823.72;4423666;32;20069;-69
2021/09/09 06:04:40;;;;;;;41.28;18.27;;;;;;;28.54;39.88;99815.94;4421931;32;20413;-70
2021/09/09 06:07:06;;;;;;;41.65;17.65;;;;;;;28.40;39.89;99820.41;4423168;32;20366;-71
2021/09/09 06:09:32;;;;;;;37.83;18.45;;;;;;;28.44;39.81;99817.91;4422084;32;20129;-68
2021/09/09 06:11:58;;;;;;;35.88;17.90;;;;;;;28.37;39.76;99816.56;4421602;32;20663;-68
2021/09/09 06:14:24;;;;;;;39.55;18.98;;;;;;;28.41;39.69;99825.59;4424069;32;20085;-68
2021/09/09 06:16:50;;;;;;;35.58;18.37;;;;;;;28.48;39.65;99824.84;4422158;32;20046;-70
2021/09/09 06:19:15;;;;;;;35.30;20.35;;;;;;;28.33;39.83;99818.31;4419601;32;20093;-69
2021/09/09 06:21:41;;;;;;;47.50;21.80;;;;;;;28.41;39.74;99827.75;4419087;32;20382;-68
2021/09/09 06:24:07;;;;;;;37.38;21.25;;;;;;;28.45;39.58;99828.91;4420082;32;20112;-68
2021/09/09 06:26:33;;;;;;;49.35;21.87;;;;;;;28.39;39.64;99822.53;4424705;32;20089;-68
2021/09/09 06:29:00;;;;;;;40.65;21.55;;;;;;;28.41;39.69;99825.59;4419662;32;20065;-69
2021/09/09 06:31:26;;;;;;;47.05;21.30;;;;;;;28.42;39.65;99820.59;4422477;32;20073;-69
2021/09/09 06:33:51;;;;;;;36.45;20.15;;;;;;;28.37;39.83;99833.16;4422842;32;20216;-69
2021/09/09 06:36:17;;;;;;;40.90;21.70;;;;;;;28.24;40.03;99833.37;4416437;32;20074;-69
2021/09/09 06:38:43;;;;;;;34.33;20.08;;;;;;;28.31;39.99;99829.69;4419285;32;20445;-70
2021/09/09 06:41:09;;;;;;;49.45;21.35;;;;;;;28.28;40.04;99828.75;4419796;32;20496;-68
2021/09/09 06:43:35;;;;;;;41.42;22.10;;;;;;;28.24;40.08;99828.38;4415769;32;20138;-69
2021/09/09 06:46:01;;;;;;;41.25;23.08;;;;;;;28.27;40.05;99838.00;4418709;32;20449;-69
2021/09/09 06:48:26;;;;;;;38.83;22.17;;;;;;;28.42;39.83;99837.97;4415292;32;20120;-69
2021/09/09 06:50:53;;;;;;;41.58;22.00;;;;;;;28.61;39.43;99832.50;4422832;32;20387;-70
2021/09/09 06:53:19;;;;;;;40.45;23.45;;;;;;;28.72;39.35;99838.63;4417832;32;20108;-69
2021/09/09 06:55:46;;;;;;;36.10;22.65;;;;;;;28.94;38.78;99836.97;4405327;32;20045;-69
2021/09/09 06:58:12;;;;;;;40.95;22.77;;;;;;;29.16;38.42;99841.09;4419436;32;20073;-69
2021/09/09 07:00:37;;;;;;;45.50;23.23;;;;;;;29.20;38.27;99829.88;4416066;32;20063;-69
2021/09/09 07:03:03;;;;;;;38.50;22.65;;;;;;;29.29;37.94;99838.69;4416680;32;20327;-69
2021/09/09 07:05:29;;;;;;;46.42;21.27;;;;;;;29.42;37.90;99832.59;4413864;32;20092;-70
2021/09/09 07:07:55;;;;;;;41.65;22.55;;;;;;;29.42;37.67;99837.62;4412968;32;20069;-69
2021/09/09 07:10:21;;;;;;;41.42;22.95;;;;;;;29.57;37.67;99843.31;4417651;32;20229;-69
2021/09/09 07:12:47;;;;;;;40.85;23.33;;;;;;;29.73;37.43;99850.53;4410288;32;20075;-69
2021/09/09 07:15:12;;;;;;;47.38;24.60;;;;;;;29.76;37.26;99853.00;4412461;32;20046;-69
2021/09/09 07:17:38;;;;;;;50.55;22.90;;;;;;;29.84;37.15;99847.91;4402745;32;20045;-69
2021/09/09 07:20:04;;;;;;;43.70;23.98;;;;;;;30.00;36.90;99851.47;4417348;32;20088;-69
2021/09/09 07:22:30;;;;;;;38.95;24.10;;;;;;;30.21;36.77;99851.81;4411382;32;20297;-69
2021/09/09 07:24:56;;;;;;;46.22;24.08;;;;;;;30.20;36.67;99845.25;4415305;32;20100;-70
2021/09/09 07:27:22;;;;;;;43.28;24.40;;;;;;;30.25;36.57;99843.47;4411331;32;20101;-70
2021/09/09 07:29:48;;;;;;;43.17;23.92;;;;;;;30.39;36.35;99844.66;4413171;32;20488;-70
2021/09/09 07:32:13;;;;;;;54.38;27.20;;;;;;;30.49;36.20;99834.66;4413903;32;20119;-70
2021/09/09 07:34:39;;;;;;;50.53;26.40;;;;;;;30.35;36.51;99842.19;4413571;32;20151;-69
2021/09/09 07:37:04;;;;;;;47.25;27.05;;;;;;;30.45;36.37;99837.22;4415242;32;20093;-70
2021/09/09 07:39:31;;;;;;;52.58;28.67;;;;;;;30.52;36.31;99847.97;4416328;32;20434;-70
2021/09/09 07:41:56;;;;;;;51.75;27.60;;;;;;;30.54;36.24;99838.66;4414896;32;20103;-70
2021/09/09 07:44:22;;;;;;;50.95;29.55;;;;;;;30.54;36.11;99838.66;4411375;32;20591;-69
2021/09/09 07:46:48;;;;;;;47.83;26.48;;;;;;;30.76;35.96;99831.81;4416450;32;20149;-69
2021/09/09 07:49:15;;;;;;;62.30;29.33;;;;;;;30.95;35.63;99837.00;4410198;32;20700;-69
2021/09/09 07:51:43;;;;;;;49.20;30.62;;;;;;;30.99;35.55;99840.22;4410746;32;20061;-70
2021/09/09 07:54:08;;;;;;;56.72;31.25;;;;;;;31.10;35.41;99831.72;4414906;32;20169;-70
2021/09/09 07:56:34;;;;;;;53.03;29.92;;;;;;;30.77;35.80;99839.19;4413867;32;20097;-70
2021/09/09 07:59:00;;;;;;;55.03;30.75;;;;;;;30.86;35.53;99832.66;4414908;32;20042;-70
2021/09/09 08:01:26;;;;;;;54.28;32.05;;;;;;;31.03;35.18;99837.66;4416603;32;20086;-70
2021/09/09 08:03:52;;;;;;;56.35;31.83;;;;;;;31.14;35.17;99837.88;4415977;32;20078;-71
2021/09/09 08:06:17;;;;;;;52.28;29.80;;;;;;;31.30;35.00;99841.34;4417494;32;20038;-69
2021/09/09 08:08:43;;;;;;;56.55;33.78;;;;;;;31.40;34.76;99845.81;4416445;32;20045;-70
2021/09/09 08:11:09;;;;;;;69.25;34.78;;;;;;;31.52;34.67;99831.47;4412800;32;20439;-70
2021/09/09 08:13:35;;;;;;;55.35;34.50;;;;;;;31.65;34.40;99828.16;4415748;32;20382;-70
2021/09/09 08:16:01;;;;;;;58.70;33.97;;;;;;;31.93;33.94;99842.03;4415527;32;20082;-70
2021/09/09 08:18:28;;;;;;;56.80;35.63;;;;;;;32.26;33.41;99834.41;4411391;32;20077;-70
2021/09/09 08:20:54;;;;;;;57.70;34.90;;;;;;;32.29;33.29;99841.94;4414767;32;20108;-70
2021/09/09 08:23:22;;;;;;;60.38;33.33;;;;;;;32.53;32.71;99840.91;4414616;32;20616;-70
2021/09/09 08:25:47;;;;;;;55.67;33.85;;;;;;;33.02;32.16;99839.47;4415371;32;20046;-70
2021/09/09 08:28:16;;;;;;;55.12;33.45;;;;;;;32.84;32.20;99838.88;4414480;32;20092;-70
2021/09/09 08:30:42;;;;;;;55.92;32.67;;;;;;;33.11;31.58;99836.53;4415485;32;20534;-70
2021/09/09 08:33:08;;;;;;;53.05;34.30;;;;;;;32.86;32.14;99849.94;4415237;32;20038;-70
2021/09/09 08:35:33;;;;;;;59.65;33.13;;;;;;;32.81;31.92;99848.06;4413973;32;20085;-70
2021/09/09 08:38:00;;;;;;;63.20;35.17;;;;;;;32.56;32.58;99837.53;4416817;32;20426;-70
2021/09/09 08:40:26;;;;;;;56.22;33.47;;;;;;;32.36;32.92;99841.03;4417020;32;20158;-70
2021/09/09 08:42:52;;;;;;;51.33;33.55;;;;;;;32.27;32.91;99842.53;4415874;32;20038;-70
2021/09/09 08:45:18;;;;;;;50.78;31.45;;;;;;;32.34;33.01;99841.66;4417138;32;21721;-71
2021/09/09 08:47:49;;;;;;;46.60;30.08;;;;;;;32.41;32.37;99849.50;4417993;32;20161;-70
2021/09/09 08:50:16;;;;;;;53.53;29.90;;;;;;;32.54;32.36;99839.50;4414583;32;20453;-70
2021/09/09 08:52:42;;;;;;;47.90;31.35;;;;;;;32.29;32.86;99839.03;4415890;32;20134;-71
2021/09/09 08:55:08;;;;;;;48.53;31.25;;;;;;;32.43;32.74;99843.06;4416549;32;20030;-71
2021/09/09 08:57:34;;;;;;;53.42;30.88;;;;;;;32.75;32.27;99838.88;4415048;32;20733;-71
2021/09/09 08:59:59;;;;;;;58.53;32.17;;;;;;;32.92;31.89;99839.50;4413775;32;20077;-69
2021/09/09 09:02:26;;;;;;;51.40;29.37;;;;;;;33.08;31.72;99842.81;4416638;32;20102;-69
2021/09/09 09:05:08;;;;;;;46.30;27.80;;;;;;;33.40;30.72;99843.06;4418991;32;20560;-69
2021/09/09 09:07:35;;;;;;;49.05;30.58;;;;;;;34.06;29.89;99853.66;4421583;32;20068;-69
2021/09/09 09:10:06;;;;;;;42.28;25.48;;;;;;;34.05;30.00;99855.03;4417590;32;20219;-69
2021/09/09 09:15:17;;;;;;;51.37;27.60;;;;;;;35.00;28.49;99841.78;3970275;32;15134572;-69
2021/09/09 09:18:06;;;;;;;45.10;26.20;;;;;;;34.98;28.68;99838.75;4421302;32;20065;-69
2021/09/09 09:20:51;;;;;;;48.53;27.87;;;;;;;35.22;28.25;99831.53;4419563;32;20073;-69
2021/09/09 09:23:21;;;;;;;39.85;26.17;;;;;;;35.70;27.48;99836.81;4422722;32;20117;-70
2021/09/09 09:28:45;;;;;;;41.15;26.23;;;;;;;35.82;27.34;99834.66;3988701;31;15026718;-71
2021/09/09 09:31:14;;;;;;;41.00;23.45;;;;;;;35.82;27.34;99834.66;4439130;32;20118;-71
2021/09/09 09:33:43;;;;;;;37.22;22.52;;;;;;;35.47;27.78;99842.69;4439200;32;20092;-71
2021/09/09 09:36:30;;;;;;;37.28;21.60;;;;;;;35.60;27.31;99839.09;4441157;32;20029;-71
2021/09/09 09:41:54;;;;;;;39.20;22.00;;;;;;;36.31;26.62;99845.06;3978280;32;15023943;-70
2021/09/09 09:47:21;;;;;;;37.67;22.15;;;;;;;36.41;26.57;99857.38;3974761;32;15023765;-71
2021/09/09 09:52:25;;;;;;;35.45;21.00;;;;;;;36.41;26.71;99848.59;3982387;32;15022657;-70
2021/09/09 09:57:29;;;;;;;38.63;21.20;;;;;;;36.32;26.79;99846.38;3945524;32;15727532;-71
2021/09/09 09:59:56;;;;;;;33.78;20.62;;;;;;;36.33;26.78;99848.13;4423059;32;20045;-72
2021/09/09 10:02:23;;;;;;;38.13;20.75;;;;;;;36.07;26.78;99843.53;4422410;32;20072;-71
2021/09/09 10:04:50;;;;;;;36.13;20.98;;;;;;;36.09;26.67;99831.97;4423889;32;20140;-71
2021/09/09 10:07:16;;;;;;;37.03;20.10;;;;;;;36.04;26.83;99833.09;4425343;32;20102;-70
2021/09/09 10:09:43;;;;;;;38.08;20.70;;;;;;;36.27;26.98;99835.22;4422176;32;20081;-70
2021/09/09 10:12:11;;;;;;;28.75;17.95;;;;;;;35.99;27.30;99823.31;4425622;32;20017;-70
2021/09/09 10:14:44;;;;;;;26.17;16.62;;;;;;;36.22;27.28;99830.53;4423135;32;20065;-69
2021/09/09 10:17:11;;;;;;;25.52;17.23;;;;;;;36.59;26.96;99823.28;4424856;32;20041;-69
2021/09/09 10:19:37;;;;;;;30.92;17.50;;;;;;;36.67;26.69;99820.06;4425181;32;20021;-71
2021/09/09 10:22:07;;;;;;;35.58;18.60;;;;;;;36.66;26.73;99824.41;4424077;32;20142;-71
2021/09/09 10:24:35;;;;;;;25.25;16.75;;;;;;;36.53;27.07;99820.00;4420536;32;20081;-70
2021/09/09 10:37:54;;;;;;;32.20;18.27;;;;;;;37.56;25.98;99832.56;3974231;32;15032282;-69
2021/09/09 10:40:38;;;;;;;36.70;19.60;;;;;;;37.10;26.67;99824.06;4427678;32;20111;-69
2021/09/09 10:43:05;;;;;;;33.47;18.85;;;;;;;37.16;26.63;99833.22;4430223;32;20073;-70
2021/09/09 10:48:29;;;;;;;31.23;19.27;;;;;;;37.61;26.69;99828.44;3975934;32;15023183;-71
2021/09/09 10:53:39;;;;;;;28.55;16.70;;;;;;;37.33;27.50;99815.16;3977734;32;15025931;-71
2021/09/09 10:58:53;;;;;;;33.70;19.42;;;;;;;36.91;28.25;99806.84;3974217;32;15029738;-70
2021/09/09 11:01:19;;;;;;;35.50;19.67;;;;;;;36.91;28.25;99806.84;4426189;32;20617;-70
2021/09/09 11:06:24;;;;;;;28.52;17.98;;;;;;;37.82;27.16;99802.47;3976086;32;15037729;-70
2021/09/09 11:08:53;;;;;;;23.40;15.75;;;;;;;37.82;27.16;99802.47;4425976;32;20559;-71
2021/09/09 11:13:56;;;;;;;29.30;17.12;;;;;;;37.10;28.03;99803.53;3968049;31;15710714;-69
2021/09/09 11:16:25;;;;;;;28.05;16.55;;;;;;;36.94;28.39;99797.53;4458577;32;20069;-69
2021/09/09 11:18:51;;;;;;;28.02;17.67;;;;;;;36.86;28.63;99802.13;4455399;32;20395;-71
2021/09/09 11:21:20;;;;;;;22.08;16.90;;;;;;;36.65;28.89;99785.53;4453081;32;20107;-70
2021/09/09 11:23:48;;;;;;;27.50;16.80;;;;;;;36.47;29.28;99799.12;4450387;32;20181;-69
2021/09/09 11:26:17;;;;;;;28.95;16.12;;;;;;;37.05;28.46;99802.53;4453581;32;20526;-70
2021/09/09 11:28:43;;;;;;;24.08;16.15;;;;;;;36.98;28.53;99800.69;4453256;32;20095;-69
2021/09/09 11:31:13;;;;;;;25.58;16.15;;;;;;;36.69;29.00;99790.88;4454281;32;20119;-70
2021/09/09 11:39:04;;;;;;;27.52;16.75;;;;;;;36.51;29.64;99787.66;3973647;32;15029914;-71
2021/09/09 11:41:31;;;;;;;25.73;18.12;;;;;;;36.17;30.31;99800.97;4423034;32;20365;-71
2021/09/09 11:44:00;;;;;;;25.77;17.02;;;;;;;36.22;30.24;99793.97;4424505;32;20088;-71
2021/09/09 11:49:04;;;;;;;26.10;16.87;;;;;;;37.24;29.10;99801.44;3965567;31;15706789;-71
2021/09/09 11:57:05;;;;;;;21.62;14.48;;;;;;;37.76;28.36;99790.41;3990452;31;15021486;-69
2021/09/09 11:59:34;;;;;;;24.35;15.05;;;;;;;37.76;28.36;99790.41;4428441;32;20096;-71
2021/09/09 12:02:06;;;;;;;23.98;15.27;;;;;;;37.30;28.84;99784.16;4443358;32;20105;-71
2021/09/09 12:04:39;;;;;;;23.65;15.52;;;;;;;37.08;28.81;99783.62;4442129;32;20029;-70
2021/09/09 12:07:07;;;;;;;17.33;12.45;;;;;;;37.23;28.49;99780.13;4441181;32;20540;-70